Time;durP1;ratioP1;P1;durP2;ratioP2;P2;SDS_P1;SDS_P2;PMS_P1;PMS_P2;Temp;Humidity;BMP_temperature;BMP_pressure;BME280_temperature;BME280_humidity;BME280_pressure;Samples;Min_cycle;Max_cycle;Signal;HPM_P1;HPM_P2
2023/04/21 00:01:46;;;;;;;12.97;7.70;;;12.60;99.90;;;;;;5012992;28;20434;-51
2023/04/21 00:04:13;;;;;;;19.83;8.37;;;12.50;99.90;;;;;;5012882;28;20535;-50
2023/04/21 00:06:41;;;;;;;15.40;7.60;;;12.40;99.90;;;;;;5013031;28;20497;-48
2023/04/21 00:09:09;;;;;;;16.47;7.10;;;12.60;99.90;;;;;;5012398;28;20442;-48
2023/04/21 00:11:36;;;;;;;10.43;6.70;;;13.00;99.90;;;;;;4995479;28;20482;-49
2023/04/21 00:14:03;;;;;;;15.20;6.90;;;12.30;99.90;;;;;;5012767;28;20826;-50
2023/04/21 00:16:30;;;;;;;13.10;7.97;;;12.30;99.90;;;;;;5012903;28;20814;-50
2023/04/21 00:18:58;;;;;;;12.13;8.00;;;12.50;99.90;;;;;;5012311;28;20485;-49
2023/04/21 00:21:25;;;;;;;18.63;8.63;;;12.40;99.90;;;;;;5012745;28;20429;-49
2023/04/21 00:23:52;;;;;;;11.77;8.60;;;12.90;99.90;;;;;;5012458;28;20463;-49
2023/04/21 00:26:19;;;;;;;12.77;7.47;;;12.50;99.90;;;;;;5012601;28;20441;-49
2023/04/21 00:28:48;;;;;;;13.23;7.77;;;12.60;99.90;;;;;;5012117;28;20457;-49
2023/04/21 00:31:14;;;;;;;12.00;8.10;;;12.20;99.90;;;;;;5012405;28;20436;-50
2023/04/21 00:33:41;;;;;;;14.20;8.47;;;12.40;99.90;;;;;;4994706;28;20477;-49
2023/04/21 00:36:09;;;;;;;15.50;9.10;;;12.10;99.90;;;;;;5012445;28;20442;-49
2023/04/21 00:38:36;;;;;;;17.87;8.07;;;11.90;99.90;;;;;;4994344;28;20861;-49
2023/04/21 00:41:02;;;;;;;16.20;8.60;;;12.60;99.90;;;;;;4994651;28;20454;-48
2023/04/21 00:43:30;;;;;;;14.80;9.10;;;12.30;99.90;;;;;;4994631;28;20473;-50
2023/04/21 00:45:56;;;;;;;15.63;8.60;;;12.50;99.90;;;;;;4994660;28;20485;-50
2023/04/21 00:48:23;;;;;;;13.20;8.40;;;12.50;99.90;;;;;;5011794;28;20618;-48
2023/04/21 00:50:50;;;;;;;17.03;8.77;;;12.20;99.90;;;;;;4994412;28;20454;-50
2023/04/21 00:53:18;;;;;;;13.93;8.80;;;12.30;99.90;;;;;;5012022;28;20986;-50
2023/04/21 00:55:45;;;;;;;12.37;8.20;;;11.90;99.90;;;;;;4994453;28;20447;-49
2023/04/21 00:58:12;;;;;;;14.83;8.60;;;11.60;99.90;;;;;;4994235;28;20486;-50
2023/04/21 01:00:39;;;;;;;15.40;8.83;;;12.10;99.90;;;;;;4994399;28;20459;-50
2023/04/21 01:03:06;;;;;;;15.30;9.50;;;12.20;99.90;;;;;;5011998;28;20456;-50
2023/04/21 01:05:33;;;;;;;11.47;8.83;;;12.20;99.90;;;;;;5012211;28;20463;-49
2023/04/21 01:08:01;;;;;;;13.27;8.83;;;11.90;99.90;;;;;;5012163;28;20497;-49
2023/04/21 01:10:29;;;;;;;15.00;9.27;;;12.00;99.90;;;;;;4994476;28;20458;-49
2023/04/21 01:12:56;;;;;;;15.03;10.07;;;11.80;99.90;;;;;;5012179;28;20500;-52
2023/04/21 01:15:23;;;;;;;11.70;10.00;;;11.90;99.90;;;;;;5010837;28;20417;-49
2023/04/21 01:17:52;;;;;;;12.00;9.50;;;11.90;99.90;;;;;;5011784;28;20518;-49
2023/04/21 01:20:18;;;;;;;16.40;10.33;;;11.80;99.90;;;;;;4994145;28;20450;-48
2023/04/21 01:22:46;;;;;;;14.40;10.07;;;12.00;99.90;;;;;;5011902;28;20511;-49
2023/04/21 01:25:13;;;;;;;14.00;9.40;;;12.30;99.90;;;;;;4994450;28;20456;-50
2023/04/21 01:27:40;;;;;;;11.83;9.50;;;11.90;99.90;;;;;;5012046;28;20535;-50
2023/04/21 01:30:08;;;;;;;12.97;10.17;;;12.00;99.90;;;;;;4993841;28;20976;-49
2023/04/21 01:32:35;;;;;;;14.87;9.30;;;12.10;99.90;;;;;;4994083;28;20486;-47
2023/04/21 01:35:02;;;;;;;15.30;10.40;;;12.00;99.90;;;;;;4994353;28;20456;-51
2023/04/21 01:37:31;;;;;;;12.83;9.90;;;11.50;99.90;;;;;;5011876;28;20432;-49
2023/04/21 01:40:03;;;;;;;15.70;10.17;;;11.30;99.90;;;;;;5011415;28;20848;-49
2023/04/21 01:42:31;;;;;;;11.77;9.70;;;12.30;99.90;;;;;;5012160;28;20786;-50
2023/04/21 01:44:58;;;;;;;13.07;9.60;;;12.30;99.90;;;;;;5012245;28;20882;-50
2023/04/21 01:47:25;;;;;;;12.23;10.00;;;11.30;99.90;;;;;;4993989;28;20455;-52
2023/04/21 01:49:52;;;;;;;12.57;10.00;;;12.10;99.90;;;;;;5011453;28;20815;-50
2023/04/21 01:52:20;;;;;;;14.47;9.97;;;12.10;99.90;;;;;;4993753;28;20522;-50
2023/04/21 01:54:47;;;;;;;13.13;10.13;;;12.00;99.90;;;;;;5011655;28;20439;-50
2023/04/21 01:57:16;;;;;;;17.37;10.57;;;12.00;99.90;;;;;;4993940;28;20767;-50
2023/04/21 01:59:43;;;;;;;14.73;10.27;;;11.60;99.90;;;;;;4993276;28;20502;-48
2023/04/21 02:02:11;;;;;;;13.87;10.43;;;11.70;99.90;;;;;;4993825;28;20808;-50
2023/04/21 02:04:37;;;;;;;18.93;10.83;;;11.70;99.90;;;;;;5062633;23;20869;-49
2023/04/21 02:07:06;;;;;;;19.33;11.60;;;11.70;99.90;;;;;;5030333;28;20424;-49
2023/04/21 02:09:32;;;;;;;15.90;10.43;;;12.00;99.90;;;;;;5031431;28;20838;-49
2023/04/21 02:11:59;;;;;;;21.23;12.00;;;11.80;99.90;;;;;;5030402;28;20446;-48
2023/04/21 02:14:27;;;;;;;17.97;11.50;;;11.20;99.90;;;;;;5031622;28;20972;-48
2023/04/21 02:16:55;;;;;;;14.97;10.40;;;11.30;99.90;;;;;;5034672;28;20781;-47
2023/04/21 02:19:22;;;;;;;16.40;10.97;;;11.60;99.90;;;;;;5034921;28;20940;-49
2023/04/21 02:21:48;;;;;;;13.13;11.70;;;12.00;99.90;;;;;;5033987;28;20449;-47
2023/04/21 02:24:15;;;;;;;14.83;11.30;;;11.50;99.90;;;;;;5033873;28;20469;-47
2023/04/21 02:26:42;;;;;;;19.33;13.30;;;11.40;99.90;;;;;;5033920;28;20543;-48
2023/04/21 02:29:08;;;;;;;16.43;13.30;;;11.40;99.90;;;;;;5033461;28;20445;-48
2023/04/21 02:31:40;;;;;;;15.83;12.10;;;11.40;99.90;;;;;;5035173;28;20516;-48
2023/04/21 02:34:07;;;;;;;17.20;13.80;;;11.40;99.90;;;;;;5035181;28;20453;-47
2023/04/21 02:36:34;;;;;;;16.57;13.50;;;11.40;99.90;;;;;;5033687;28;20554;-47
2023/04/21 02:39:01;;;;;;;20.37;15.00;;;11.30;99.90;;;;;;5033588;28;21005;-49
2023/04/21 02:41:28;;;;;;;18.90;13.73;;;11.70;99.90;;;;;;5034161;28;20423;-47
2023/04/21 02:43:54;;;;;;;19.60;12.80;;;11.90;99.90;;;;;;5034259;28;20481;-48
2023/04/21 02:46:22;;;;;;;17.10;12.63;;;11.60;99.90;;;;;;5036669;28;20434;-48
2023/04/21 02:48:50;;;;;;;15.47;11.60;;;11.50;99.90;;;;;;5033707;28;20449;-48
2023/04/21 02:51:17;;;;;;;15.17;11.87;;;11.40;99.90;;;;;;5033659;28;20527;-47
2023/04/21 02:53:44;;;;;;;12.63;11.30;;;11.30;99.90;;;;;;5033565;28;20569;-48
2023/04/21 02:56:11;;;;;;;19.17;12.10;;;11.90;99.90;;;;;;5033273;28;20953;-47
2023/04/21 02:58:38;;;;;;;15.60;11.27;;;11.00;99.90;;;;;;5032936;28;20547;-46
2023/04/21 03:01:05;;;;;;;13.63;11.63;;;11.30;99.90;;;;;;5032989;28;20427;-47
2023/04/21 03:03:35;;;;;;;12.20;10.70;;;11.20;99.90;;;;;;5032857;28;20479;-48
2023/04/21 03:06:04;;;;;;;21.00;11.93;;;11.70;99.90;;;;;;5032897;28;20965;-47
2023/04/21 03:08:31;;;;;;;14.50;10.70;;;11.20;99.90;;;;;;5032690;28;20458;-48
2023/04/21 03:10:59;;;;;;;25.03;12.37;;;11.40;99.90;;;;;;5032983;28;20877;-48
2023/04/21 03:13:25;;;;;;;15.90;12.27;;;11.20;99.90;;;;;;5034076;28;20508;-48
2023/04/21 03:15:52;;;;;;;17.10;11.90;;;11.20;99.90;;;;;;5032636;28;20455;-48
2023/04/21 03:18:19;;;;;;;12.63;11.13;;;10.90;99.90;;;;;;5032334;28;20457;-48
2023/04/21 03:20:45;;;;;;;14.93;12.40;;;11.30;99.90;;;;;;5033982;28;20482;-48
2023/04/21 03:23:14;;;;;;;13.40;10.60;;;10.80;99.90;;;;;;5033997;28;20869;-47
2023/04/21 03:25:40;;;;;;;13.73;11.47;;;11.50;99.90;;;;;;5034082;28;20523;-47
2023/04/21 03:28:07;;;;;;;18.13;12.03;;;11.00;99.90;;;;;;5031259;28;20447;-47
2023/04/21 03:30:33;;;;;;;15.67;11.83;;;11.40;99.90;;;;;;5034290;28;20432;-48
2023/04/21 03:33:00;;;;;;;13.13;11.77;;;11.10;99.90;;;;;;5033896;28;20471;-48
2023/04/21 03:35:27;;;;;;;14.07;12.50;;;11.10;99.90;;;;;;5032338;28;20527;-47
2023/04/21 03:37:53;;;;;;;18.43;13.00;;;11.10;99.90;;;;;;5033668;28;20427;-48
2023/04/21 03:40:22;;;;;;;14.40;10.97;;;11.30;99.90;;;;;;5032243;28;20802;-47
2023/04/21 03:42:50;;;;;;;13.90;11.40;;;10.90;99.90;;;;;;5032913;28;20712;-46
2023/04/21 03:45:18;;;;;;;17.40;12.60;;;11.20;99.90;;;;;;5033730;28;20796;-47
2023/04/21 03:47:45;;;;;;;16.47;11.67;;;10.90;99.90;;;;;;5034476;28;20434;-48
2023/04/21 03:50:12;;;;;;;17.47;13.63;;;10.80;99.90;;;;;;5034601;28;20519;-50
2023/04/21 03:52:38;;;;;;;13.90;12.50;;;11.40;99.90;;;;;;5034924;28;20531;-48
2023/04/21 03:55:07;;;;;;;14.93;12.77;;;11.00;99.90;;;;;;5034744;28;20437;-48
2023/04/21 03:57:35;;;;;;;15.63;13.23;;;10.90;99.90;;;;;;5034943;28;20437;-47
2023/04/21 04:00:04;;;;;;;16.37;12.93;;;11.00;99.90;;;;;;5033873;28;20478;-47
2023/04/21 04:02:39;;;;;;;16.67;12.87;;;11.30;99.90;;;;;;5033078;28;20473;-47
2023/04/21 04:05:07;;;;;;;16.77;12.20;;;10.90;99.90;;;;;;5032167;28;20543;-48
2023/04/21 04:07:34;;;;;;;18.47;13.03;;;11.00;99.90;;;;;;5033212;28;20411;-48
2023/04/21 04:10:01;;;;;;;16.50;12.40;;;11.00;99.90;;;;;;5032881;28;20444;-48
2023/04/21 04:12:27;;;;;;;17.80;13.63;;;10.80;99.90;;;;;;5033496;28;20412;-47
2023/04/21 04:14:55;;;;;;;14.80;13.20;;;10.90;99.90;;;;;;5032898;28;20967;-48
2023/04/21 04:17:22;;;;;;;14.57;12.47;;;11.00;99.90;;;;;;5032833;28;20811;-49
2023/04/21 04:19:49;;;;;;;19.00;13.37;;;10.80;99.90;;;;;;5032606;28;21004;-48
2023/04/21 04:22:15;;;;;;;18.47;12.30;;;11.30;99.90;;;;;;5032917;28;20433;-47
2023/04/21 04:24:43;;;;;;;15.30;12.90;;;10.40;99.90;;;;;;5032551;28;20464;-48
2023/04/21 04:27:12;;;;;;;13.73;12.37;;;10.70;99.90;;;;;;5032809;28;20415;-49
2023/04/21 04:29:39;;;;;;;19.00;13.70;;;10.70;99.90;;;;;;5032507;28;20441;-48
2023/04/21 04:32:08;;;;;;;15.30;12.57;;;11.10;99.90;;;;;;5033060;28;20709;-48
2023/04/21 04:34:36;;;;;;;14.17;12.67;;;11.30;99.90;;;;;;5032803;28;20545;-47
2023/04/21 04:37:03;;;;;;;17.43;11.87;;;11.10;99.90;;;;;;5033424;28;20451;-49
2023/04/21 04:39:30;;;;;;;15.87;12.53;;;10.90;99.90;;;;;;5032166;28;20480;-48
2023/04/21 04:41:57;;;;;;;15.23;12.67;;;11.00;99.90;;;;;;5034294;28;20455;-49
2023/04/21 04:44:24;;;;;;;19.23;13.47;;;10.80;99.90;;;;;;5033441;28;20550;-48
2023/04/21 04:46:51;;;;;;;16.60;12.60;;;11.10;99.90;;;;;;5033682;28;20447;-49
2023/04/21 04:49:19;;;;;;;13.93;12.40;;;10.90;99.90;;;;;;5033258;28;20441;-48
2023/04/21 04:51:46;;;;;;;15.90;13.30;;;11.40;99.90;;;;;;5032168;28;20898;-48
2023/04/21 04:54:12;;;;;;;15.60;12.53;;;11.20;99.90;;;;;;5032362;28;20480;-47
2023/04/21 04:56:39;;;;;;;18.30;12.70;;;11.00;99.90;;;;;;5032324;28;20455;-48
2023/04/21 04:59:05;;;;;;;15.03;13.17;;;10.50;99.90;;;;;;5032345;28;20447;-47
2023/04/21 05:01:32;;;;;;;19.90;12.90;;;10.80;99.90;;;;;;5032477;28;20568;-47
2023/04/21 05:03:59;;;;;;;14.73;12.90;;;11.10;99.90;;;;;;5031942;28;20466;-47
2023/04/21 05:06:28;;;;;;;15.47;12.87;;;11.00;99.90;;;;;;5032008;28;20452;-48
2023/04/21 05:08:54;;;;;;;25.80;13.93;;;11.00;99.90;;;;;;5031643;28;20909;-47
2023/04/21 05:11:21;;;;;;;17.70;13.57;;;10.70;99.90;;;;;;5032064;28;20441;-49
2023/04/21 05:13:48;;;;;;;15.70;13.00;;;11.20;99.90;;;;;;5032306;28;20966;-47
2023/04/21 05:16:15;;;;;;;13.40;12.00;;;11.20;99.90;;;;;;5041141;28;20533;-48
2023/04/21 05:18:41;;;;;;;15.97;13.00;;;11.40;99.90;;;;;;5051687;28;20414;-48
2023/04/21 05:21:08;;;;;;;14.40;12.13;;;11.60;99.90;;;;;;5051762;28;20804;-49
2023/04/21 05:23:36;;;;;;;14.67;12.57;;;11.50;99.90;;;;;;5051796;28;20472;-49
2023/04/21 05:26:02;;;;;;;16.10;12.83;;;11.30;99.90;;;;;;5051237;28;20416;-49
2023/04/21 05:28:30;;;;;;;16.73;12.37;;;11.90;99.90;;;;;;5051555;28;20430;-49
2023/04/21 05:30:57;;;;;;;15.27;12.67;;;11.50;99.90;;;;;;5051644;28;20814;-49
2023/04/21 05:33:25;;;;;;;16.00;12.60;;;11.30;99.90;;;;;;5051770;28;20456;-46
2023/04/21 05:35:52;;;;;;;14.13;12.63;;;11.90;99.90;;;;;;5051814;28;20973;-47
2023/04/21 05:38:18;;;;;;;17.80;12.77;;;12.20;99.90;;;;;;5050820;28;20439;-48
2023/04/21 05:40:53;;;;;;;15.40;12.73;;;12.00;99.90;;;;;;5049702;28;20546;-47
2023/04/21 05:43:20;;;;;;;19.93;12.70;;;12.20;99.90;;;;;;5051426;28;20981;-49
2023/04/21 05:45:46;;;;;;;15.43;12.70;;;12.40;99.90;;;;;;5051880;28;20435;-50
2023/04/21 05:48:13;;;;;;;16.13;12.93;;;12.40;99.90;;;;;;5050694;28;20434;-49
2023/04/21 05:50:40;;;;;;;13.33;11.90;;;12.40;99.90;;;;;;5050851;28;20487;-47
2023/04/21 05:53:06;;;;;;;12.90;11.60;;;12.20;99.90;;;;;;5055320;28;20446;-48
2023/04/21 05:55:34;;;;;;;18.90;12.90;;;12.90;99.90;;;;;;5055560;28;20442;-47
2023/04/21 05:58:02;;;;;;;16.57;13.30;;;12.10;99.90;;;;;;5055465;28;20500;-48
2023/04/21 06:00:30;;;;;;;23.30;13.17;;;12.50;99.90;;;;;;5055355;28;20934;-48
2023/04/21 06:02:56;;;;;;;14.37;12.90;;;12.20;99.90;;;;;;5055640;28;20464;-47
2023/04/21 06:05:23;;;;;;;16.40;12.00;;;12.60;99.90;;;;;;5055661;28;20445;-48
2023/04/21 06:07:50;;;;;;;16.77;12.20;;;12.70;99.90;;;;;;5055736;28;20460;-48
2023/04/21 06:10:17;;;;;;;14.83;13.33;;;13.10;99.90;;;;;;5054869;28;20503;-48
2023/04/21 06:12:44;;;;;;;20.90;12.30;;;12.70;99.90;;;;;;5055763;28;20490;-48
2023/04/21 06:15:12;;;;;;;14.30;12.70;;;12.90;99.90;;;;;;5056588;28;20421;-49
2023/04/21 06:17:39;;;;;;;19.77;13.10;;;12.60;99.90;;;;;;5055873;28;20433;-50
2023/04/21 06:20:07;;;;;;;15.00;13.00;;;13.00;99.90;;;;;;5054859;28;20485;-49
2023/04/21 06:22:34;;;;;;;16.30;12.63;;;13.30;99.90;;;;;;5055094;28;20952;-48
2023/04/21 06:25:00;;;;;;;17.63;13.40;;;13.30;99.70;;;;;;5054973;28;20536;-49
2023/04/21 06:27:27;;;;;;;17.30;12.87;;;13.70;99.90;;;;;;5054827;28;20430;-48
2023/04/21 06:29:55;;;;;;;18.40;12.80;;;13.40;99.70;;;;;;5054301;28;20889;-49
2023/04/21 06:32:23;;;;;;;17.10;11.77;;;13.80;99.60;;;;;;5054420;28;20678;-48
2023/04/21 06:34:50;;;;;;;21.20;13.90;;;13.80;99.20;;;;;;5053971;28;20440;-48
2023/04/21 06:37:16;;;;;;;16.57;12.60;;;13.60;99.10;;;;;;5054090;28;20412;-48
2023/04/21 06:39:43;;;;;;;14.10;12.20;;;13.90;98.90;;;;;;5054026;28;20410;-48
2023/04/21 06:42:09;;;;;;;13.03;11.63;;;13.60;98.70;;;;;;5054753;28;20457;-48
2023/04/21 06:44:42;;;;;;;18.40;13.90;;;13.10;98.30;;;;;;5053089;28;20899;-49
2023/04/21 06:47:08;;;;;;;18.33;12.73;;;13.70;98.70;;;;;;5057248;28;20405;-49
2023/04/21 06:49:36;;;;;;;15.47;12.67;;;14.10;98.60;;;;;;5055317;28;21025;-49
2023/04/21 06:52:03;;;;;;;17.53;12.80;;;13.80;98.30;;;;;;5056607;28;20965;-47
2023/04/21 06:54:30;;;;;;;14.17;11.60;;;13.90;98.30;;;;;;5053865;28;21007;-48
2023/04/21 06:56:56;;;;;;;14.90;12.50;;;13.70;98.10;;;;;;5056160;28;20446;-48
2023/04/21 06:59:23;;;;;;;12.67;11.17;;;13.80;98.10;;;;;;5055784;28;20451;-48
2023/04/21 07:01:51;;;;;;;13.60;12.13;;;13.60;97.90;;;;;;5052853;28;21017;-50
2023/04/21 07:04:17;;;;;;;16.83;13.80;;;13.80;97.80;;;;;;5054974;28;20451;-49
2023/04/21 07:06:45;;;;;;;14.23;12.70;;;13.40;97.60;;;;;;5055453;28;20489;-49
2023/04/21 07:09:12;;;;;;;12.80;11.13;;;14.00;97.70;;;;;;5054097;28;20457;-49
2023/04/21 07:11:39;;;;;;;14.43;12.60;;;14.00;97.50;;;;;;5054120;28;20415;-48
2023/04/21 07:14:05;;;;;;;18.50;12.60;;;14.00;97.60;;;;;;5054236;28;20794;-47
2023/04/21 07:16:32;;;;;;;19.40;12.37;;;14.20;97.20;;;;;;5052488;28;20476;-47
2023/04/21 07:18:59;;;;;;;17.10;11.97;;;14.10;97.20;;;;;;5054063;28;20439;-48
2023/04/21 07:21:26;;;;;;;14.93;12.13;;;13.80;96.90;;;;;;5053816;28;20524;-49
2023/04/21 07:23:54;;;;;;;13.53;12.10;;;14.00;96.90;;;;;;5051911;28;20481;-49
2023/04/21 07:26:20;;;;;;;14.77;12.20;;;14.10;96.70;;;;;;5053616;28;20871;-48
2023/04/21 07:28:48;;;;;;;17.20;12.30;;;14.10;96.70;;;;;;5053323;28;20444;-48
2023/04/21 07:31:15;;;;;;;14.00;11.60;;;14.70;97.00;;;;;;5053372;28;20493;-48
2023/04/21 07:33:41;;;;;;;13.73;11.90;;;14.70;96.90;;;;;;5054249;28;20451;-47
2023/04/21 07:36:09;;;;;;;15.03;12.30;;;14.40;96.70;;;;;;5054419;28;20405;-48
2023/04/21 07:38:37;;;;;;;18.63;12.00;;;14.40;96.60;;;;;;5053850;28;20443;-48
2023/04/21 07:41:05;;;;;;;14.80;12.20;;;14.70;96.60;;;;;;5054702;28;20485;-48
2023/04/21 07:43:31;;;;;;;15.97;12.10;;;14.70;96.50;;;;;;5054300;28;20466;-47
2023/04/21 07:45:58;;;;;;;17.97;12.43;;;14.60;96.10;;;;;;5054399;28;20530;-46
2023/04/21 07:48:25;;;;;;;14.80;11.10;;;14.60;96.20;;;;;;5053985;28;20442;-47
2023/04/21 07:50:52;;;;;;;13.77;12.30;;;14.20;96.00;;;;;;5054381;28;20431;-49
2023/04/21 07:53:18;;;;;;;15.90;13.20;;;15.10;96.30;;;;;;5054430;28;21031;-48
2023/04/21 07:55:45;;;;;;;13.03;11.47;;;14.40;95.70;;;;;;5053460;28;20410;-47
2023/04/21 07:58:13;;;;;;;18.13;11.40;;;14.50;95.50;;;;;;5052877;28;20410;-48
2023/04/21 08:00:39;;;;;;;16.50;12.60;;;14.50;95.60;;;;;;5052312;28;20482;-49
2023/04/21 08:03:06;;;;;;;16.23;12.27;;;14.90;95.90;;;;;;5052199;28;20779;-47
2023/04/21 08:05:33;;;;;;;15.20;12.10;;;15.20;96.10;;;;;;5052934;28;20413;-48
2023/04/21 08:07:59;;;;;;;15.10;12.07;;;14.90;95.70;;;;;;5053016;28;20442;-49
2023/04/21 08:10:26;;;;;;;15.47;12.53;;;15.00;95.70;;;;;;5051988;28;20932;-49
2023/04/21 08:12:53;;;;;;;20.17;12.00;;;15.20;95.60;;;;;;5051906;28;20427;-49
2023/04/21 08:15:21;;;;;;;15.57;11.43;;;15.40;95.50;;;;;;5052857;28;20417;-48
2023/04/21 08:17:47;;;;;;;14.50;12.40;;;15.10;95.30;;;;;;5052536;28;20776;-49
2023/04/21 08:20:14;;;;;;;17.57;11.50;;;15.30;95.50;;;;;;5052567;28;20435;-49
2023/04/21 08:22:41;;;;;;;12.97;10.67;;;15.10;94.90;;;;;;5052128;28;20427;-49
2023/04/21 08:25:08;;;;;;;15.90;11.43;;;15.40;95.20;;;;;;5052552;28;20517;-50
2023/04/21 08:27:37;;;;;;;13.47;10.87;;;15.20;94.90;;;;;;5052435;28;20467;-50
2023/04/21 08:30:05;;;;;;;18.03;11.07;;;15.40;94.70;;;;;;5052211;28;20773;-50
2023/04/21 08:32:33;;;;;;;15.57;10.70;;;15.30;94.70;;;;;;5051006;28;20827;-49
2023/04/21 08:34:59;;;;;;;14.87;11.40;;;15.30;94.40;;;;;;5052163;28;20434;-48
2023/04/21 08:37:26;;;;;;;14.07;11.73;;;15.60;94.50;;;;;;5052102;28;20438;-50
2023/04/21 08:39:53;;;;;;;12.27;10.77;;;15.80;94.30;;;;;;5051926;28;20417;-49
2023/04/21 08:42:20;;;;;;;12.73;10.70;;;15.60;94.40;;;;;;5051677;28;20565;-49
2023/04/21 08:44:47;;;;;;;15.80;10.50;;;15.20;93.80;;;;;;5044061;28;20463;-48
2023/04/21 08:47:15;;;;;;;12.53;11.17;;;15.50;94.10;;;;;;5015533;28;20427;-49
2023/04/21 08:49:43;;;;;;;12.50;11.33;;;15.40;94.00;;;;;;5012556;28;20444;-49
2023/04/21 08:52:12;;;;;;;14.17;11.37;;;15.60;93.90;;;;;;5011779;28;20444;-49
2023/04/21 08:54:40;;;;;;;17.53;11.40;;;15.60;93.90;;;;;;5012470;28;20542;-48
2023/04/21 08:57:07;;;;;;;12.80;11.47;;;15.40;93.80;;;;;;5026882;28;20782;-48
2023/04/21 08:59:33;;;;;;;13.77;11.77;;;15.90;94.10;;;;;;5011743;28;20442;-48
2023/04/21 09:02:08;;;;;;;17.80;10.00;;;15.90;93.70;;;;;;5011825;28;20977;-49
2023/04/21 09:04:35;;;;;;;12.73;10.70;;;16.10;94.00;;;;;;5012098;28;20446;-50
2023/04/21 09:07:03;;;;;;;17.50;10.77;;;15.90;94.00;;;;;;5011918;28;20445;-48
2023/04/21 09:09:30;;;;;;;15.23;11.53;;;15.70;93.80;;;;;;5011377;28;20792;-49
2023/04/21 09:11:57;;;;;;;11.57;10.47;;;15.70;93.80;;;;;;5011910;28;20432;-49
2023/04/21 09:14:31;;;;;;;14.23;10.47;;;15.90;93.50;;;;;;5012043;28;20932;-49
2023/04/21 09:17:01;;;;;;;16.70;10.20;;;15.80;93.40;;;;;;5011933;28;20938;-50
2023/04/21 09:19:28;;;;;;;11.63;10.47;;;16.00;93.50;;;;;;5011412;28;20430;-50
2023/04/21 09:21:55;;;;;;;15.53;11.20;;;16.00;93.40;;;;;;5011459;28;20494;-49
2023/04/21 09:24:23;;;;;;;11.37;10.17;;;16.10;93.30;;;;;;5011024;28;20466;-49
2023/04/21 09:26:50;;;;;;;11.77;10.47;;;15.90;93.20;;;;;;5011008;28;20441;-49
2023/04/21 09:29:17;;;;;;;14.57;10.30;;;16.00;92.80;;;;;;5024936;28;20465;-49
2023/04/21 09:31:44;;;;;;;12.90;10.80;;;16.20;92.00;;;;;;5030949;28;20635;-50
2023/04/21 09:34:18;;;;;;;11.03;9.87;;;16.30;92.20;;;;;;5031024;28;20472;-49
2023/04/21 09:36:45;;;;;;;18.57;10.63;;;16.40;92.60;;;;;;5031473;28;20415;-48
2023/04/21 09:39:12;;;;;;;14.40;10.13;;;16.50;92.10;;;;;;5031114;28;20502;-50
2023/04/21 09:41:40;;;;;;;10.13;8.97;;;16.30;91.80;;;;;;5031241;28;20478;-49
2023/04/21 09:44:07;;;;;;;12.60;10.93;;;16.20;92.00;;;;;;5031036;28;20449;-48
2023/04/21 09:46:35;;;;;;;10.83;9.57;;;16.30;91.80;;;;;;5031736;28;20446;-48
2023/04/21 09:49:03;;;;;;;17.80;11.47;;;16.50;92.00;;;;;;5030867;28;20438;-50
2023/04/21 09:51:31;;;;;;;16.27;9.67;;;16.50;92.10;;;;;;5031153;28;20438;-50
2023/04/21 09:54:00;;;;;;;15.17;10.40;;;16.50;92.20;;;;;;5031168;28;20960;-49
2023/04/21 09:56:30;;;;;;;12.10;9.67;;;16.50;91.40;;;;;;5030997;28;20483;-49
2023/04/21 09:59:01;;;;;;;9.77;8.80;;;17.00;91.40;;;;;;5030564;28;20446;-48
2023/04/21 10:01:30;;;;;;;14.53;8.63;;;16.30;90.40;;;;;;5030800;28;20481;-49
2023/04/21 10:03:58;;;;;;;11.80;9.10;;;16.90;90.70;;;;;;5031372;28;21081;-49
2023/04/21 10:06:25;;;;;;;12.00;9.10;;;16.70;90.50;;;;;;5030972;28;20447;-49
2023/04/21 10:08:55;;;;;;;9.77;8.43;;;16.80;90.40;;;;;;5030935;28;20805;-49
2023/04/21 10:11:22;;;;;;;12.17;9.30;;;16.90;89.50;;;;;;5030795;28;20535;-49
2023/04/21 10:13:50;;;;;;;14.60;8.50;;;16.60;88.30;;;;;;5030865;28;20463;-49
2023/04/21 10:16:20;;;;;;;11.10;8.70;;;16.90;88.90;;;;;;5030917;28;20931;-49
2023/04/21 10:18:47;;;;;;;11.10;8.27;;;16.90;87.70;;;;;;5030918;28;20926;-48
2023/04/21 10:21:20;;;;;;;9.00;7.70;;;17.30;88.20;;;;;;5030943;28;20478;-49
2023/04/21 10:23:48;;;;;;;11.77;8.10;;;16.90;87.50;;;;;;5029206;28;20449;-49
2023/04/21 10:26:18;;;;;;;10.37;8.00;;;17.50;87.30;;;;;;5023438;28;20269;-48
2023/04/21 10:28:53;;;;;;;10.30;7.97;;;17.40;85.40;;;;;;5015368;28;20947;-49
2023/04/21 10:31:31;;;;;;;9.07;8.13;;;17.00;82.80;;;;;;5030271;28;20448;-49
2023/04/21 10:34:21;;;;;;;10.50;8.63;;;17.40;83.30;;;;;;5025428;28;20473;-48
2023/04/21 10:37:07;;;;;;;8.80;7.90;;;17.60;82.10;;;;;;5012644;28;20432;-49
2023/04/21 10:39:36;;;;;;;13.20;8.13;;;17.50;82.80;;;;;;5014888;28;20449;-49
2023/04/21 10:42:23;;;;;;;9.33;8.30;;;17.50;82.50;;;;;;5016299;28;20494;-50
2023/04/21 10:45:10;;;;;;;9.73;8.33;;;17.40;82.70;;;;;;5033247;28;20483;-50
2023/04/21 10:47:44;;;;;;;9.50;7.57;;;17.60;81.40;;;;;;5034498;28;20445;-47
2023/04/21 10:50:28;;;;;;;8.80;7.90;;;17.60;81.10;;;;;;5034119;28;20496;-49
2023/04/21 10:52:58;;;;;;;15.63;8.50;;;17.80;79.90;;;;;;5032138;28;20457;-50
2023/04/21 10:55:29;;;;;;;20.90;9.77;;;17.80;80.10;;;;;;5016784;28;20953;-49
2023/04/21 10:57:57;;;;;;;8.87;7.97;;;17.70;78.80;;;;;;5014644;28;20450;-49
2023/04/21 11:00:25;;;;;;;15.10;8.73;;;17.70;77.50;;;;;;5026310;28;20447;-50
2023/04/21 11:03:01;;;;;;;9.80;8.17;;;17.80;77.10;;;;;;5034048;28;20811;-49
2023/04/21 11:05:37;;;;;;;9.33;8.43;;;17.90;77.40;;;;;;5033620;28;20542;-49
2023/04/21 11:08:10;;;;;;;11.53;7.83;;;18.10;77.90;;;;;;5034015;28;20449;-48
2023/04/21 11:10:52;;;;;;;9.40;7.83;;;18.00;77.70;;;;;;5033794;28;20434;-49
2023/04/21 11:13:23;;;;;;;9.00;8.17;;;18.00;77.10;;;;;;5031657;28;20484;-48
2023/04/21 11:15:57;;;;;;;9.23;8.33;;;17.70;77.30;;;;;;5033528;28;20450;-49
2023/04/21 11:18:34;;;;;;;10.57;8.97;;;17.80;77.00;;;;;;5031956;28;20450;-49
2023/04/21 11:21:07;;;;;;;11.57;8.13;;;18.00;76.60;;;;;;5033828;28;20438;-49
2023/04/21 11:23:34;;;;;;;11.07;7.97;;;18.20;75.80;;;;;;5033799;28;20530;-48
2023/04/21 11:26:01;;;;;;;9.23;7.40;;;18.20;76.50;;;;;;5032689;28;20458;-48
2023/04/21 11:28:28;;;;;;;8.80;7.87;;;17.90;75.80;;;;;;5032868;28;20439;-50
2023/04/21 11:30:55;;;;;;;11.50;9.07;;;18.40;75.40;;;;;;5033179;28;20443;-49
2023/04/21 11:33:21;;;;;;;8.27;7.40;;;18.20;75.00;;;;;;5030285;28;20479;-49
2023/04/21 11:35:50;;;;;;;9.93;7.40;;;18.00;74.40;;;;;;5012264;28;20456;-48
2023/04/21 11:38:17;;;;;;;8.17;7.20;;;18.20;72.90;;;;;;5012695;28;20479;-50
2023/04/21 11:40:46;;;;;;;9.27;8.37;;;18.20;71.90;;;;;;5011869;28;20980;-50
2023/04/21 11:43:13;;;;;;;11.07;7.80;;;18.20;71.20;;;;;;5012875;28;20487;-50
2023/04/21 11:45:41;;;;;;;12.23;7.63;;;18.40;71.70;;;;;;5011861;28;20805;-49
2023/04/21 11:48:15;;;;;;;8.20;7.33;;;18.10;71.10;;;;;;5049900;28;20548;-50
2023/04/21 11:50:49;;;;;;;9.80;8.03;;;18.30;70.60;;;;;;5053128;28;20434;-49
2023/04/21 11:53:16;;;;;;;8.43;7.20;;;18.30;70.30;;;;;;5052737;28;20488;-50
2023/04/21 11:55:44;;;;;;;9.47;8.23;;;18.40;70.20;;;;;;5032973;28;20450;-49
2023/04/21 11:58:14;;;;;;;13.07;7.80;;;18.60;69.10;;;;;;5032518;28;20458;-49
2023/04/21 12:00:44;;;;;;;11.77;8.20;;;18.50;69.10;;;;;;5031197;28;20557;-49
2023/04/21 12:03:13;;;;;;;10.60;8.00;;;18.60;69.70;;;;;;5031556;28;21007;-49
2023/04/21 12:05:40;;;;;;;11.90;7.70;;;18.80;70.40;;;;;;5031688;28;20436;-49
2023/04/21 12:08:13;;;;;;;9.50;8.00;;;18.40;69.10;;;;;;5030767;28;20555;-49
2023/04/21 12:10:44;;;;;;;7.93;7.17;;;18.60;69.40;;;;;;5031361;28;20454;-49
2023/04/21 12:13:12;;;;;;;8.33;7.63;;;18.70;67.30;;;;;;5032439;28;20561;-50
2023/04/21 12:15:39;;;;;;;9.00;7.03;;;18.90;65.70;;;;;;5030917;28;20478;-49
2023/04/21 12:18:13;;;;;;;9.90;7.50;;;18.70;66.00;;;;;;5032253;28;20832;-50
2023/04/21 12:20:50;;;;;;;9.37;7.47;;;18.80;65.90;;;;;;5032279;28;20430;-49
2023/04/21 12:23:18;;;;;;;11.80;7.50;;;19.10;66.00;;;;;;5031974;28;20486;-49
2023/04/21 12:25:48;;;;;;;11.93;7.93;;;18.70;66.00;;;;;;5032198;28;20515;-50
2023/04/21 12:28:17;;;;;;;11.50;8.30;;;18.80;66.80;;;;;;5030325;28;20457;-50
2023/04/21 12:30:44;;;;;;;8.73;7.80;;;18.70;66.30;;;;;;5032017;28;20427;-48
2023/04/21 12:33:11;;;;;;;7.93;7.13;;;18.80;65.80;;;;;;5030205;28;21266;-49
2023/04/21 12:35:38;;;;;;;8.70;7.90;;;19.00;65.70;;;;;;5012367;28;20462;-49